Louisville, Kentucky
Current Conditions -  °F | °C
As of 2:15 PM on Saturday 20 Dec 2014 (Local Time) from KSDF Reporting Station
Broken Clouds Broken Clouds  
Wind Chill: 38°   Ceiling: 5500
Heat Index: 38°   Visibility: 8mi
Dew Point: 25°   Wind: 3mph
Humidity: 60%   Direction: NA
Pressure: 30.25"   Gusts: NA
Location:  38.25°N, 85.77°W
Report Text: KSDF 201915Z VRB03KT 8SM SCT023 BKN055 03/M04 A3025 RMK AO2 T00331039
Loading
Personal Weather Stations






























Interactive Weather Map New forecast layout! Learn more

10-Day Weather Forecast

Advertisements
Track Severe Weather on mobile